ADDS TAF Board (Experimental) INFO

IDs: Format: Expanded Condensed

Updated at: 1457 UTC 31 Oct 2014

KMIA - Miami Intl, FL, US

Issued at 1120 UTC 31 Oct 2014
Time1453Z31/15Z31/16Z31/17Z31/18Z31/19Z31/20Z31/21Z31/22Z31/23Z01/00Z01/01Z01/02Z01/03Z
TypeOBSPRVLPRVLPRVLPRVLPRVLPRVLPRVLPRVLPRVLPRVLPRVLPRVLPRVL
VIS10>6>6>6>6>6>6>6>6>6>6>6>6>6
CIG----------------------------
CoverFEWFEWSCTSCTSCTSCTSCTSCTSCTSCTSCTSKCSKCSKC
FltCat--VFRVFRVFRVFRVFRVFRVFRVFRVFRVFRVFRVFRVFR
WX----VCSHVCSHVCSHVCSHVCSHVCSHVCSHVCSHVCSH------
WDir260VRB250250250250250250250250250290290290
WSpd64101010101010101010666
WGst----------------------------
R08/26
XWnd-1VRB-3-3-3-3-3-3-3-3-3222
HWnd-6VRB-10-10-10-10-10-10-10-10-10-6-6-6
R09/27
XWnd-1VRB-3-3-3-3-3-3-3-3-3222
HWnd-6VRB-10-10-10-10-10-10-10-10-10-6-6-6
R12/30
XWnd-4VRB-8-8-8-8-8-8-8-8-8-1-1-1
HWnd-5VRB-7-7-7-7-7-7-7-7-7-6-6-6
Raw TAF
KMIA 311120Z 3112/0112 VRB04KT P6SM FEW250
  FM311600 25010KT P6SM VCSH SCT040 SCT250
  FM010100 29006KT P6SM SKC


Raw METAR
KMIA 311453Z 26006KT 10SM FEW030 FEW150 27/17 A2989 RMK AO2 SLP120 CB DSNT SW AND NW MOV E T02720172 51007
KMIA 311353Z 28005KT 10SM FEW030 FEW150 27/19 A2988 RMK AO2 SLP120 TCU DSNT SW-NW T02670194

TAF Board Legend

Hazard VFR MVFR IFR LIFR
Visibility (sm) >5 3≤X≤5 1≤X<3 <1
Ceiling (100 ft) >30 10≤X≤30 5≤X<10 <5
Wind Speed (kt) <10 10≤X<20 20≤X<30 ≥30
Wind Gust (kt) <15 15≤X<25 25≤X<35 ≥35
Weather No Wx Reported VCTS,-TS,-FZRA TS,FZRA +TS,+FZRA


Page loaded:  14:57 UTC  |   07:57 AM Pacific  |   08:57 AM Mountain  |   09:57 AM Central  |   10:57 AM Eastern

 

ADVISORIES

FORECASTS

FORECASTS

OBSERVATIONS

USER TOOLS

ABOUT US